English version
lugares datos climáticos artículos

datos de Mairena del Aljarafe, Sevilla, España
Año Mes Dia Mostrar

  Fecha       hora        Temp.ext.    Hum.ext.  Dir.Viento   Vel.Viento  Presion al NM   T.int. Prec.hoy 

   16-01-2019    09:55       6.9º(+0.5)     89%      022 (N)      1.6 km/h    1020.7 hpa     21.4º    0.0 mm
   16-01-2019    09:50       6.8º(+0.5)     89%      022 (N)      1.6 km/h    1020.7 hpa     21.4º    0.0 mm
   16-01-2019    09:45       6.7º(+0.4)     89%      022 (N)      1.6 km/h    1020.6 hpa     21.4º    0.0 mm
   16-01-2019    09:40       6.7º(+0.6)     89%      022 (N)      1.6 km/h    1020.6 hpa     21.4º    0.0 mm
   16-01-2019    09:35       6.7º(+0.7)     89%      045(NE)      1.6 km/h    1020.5 hpa     21.5º    0.0 mm
   16-01-2019    09:30       6.8º(+0.9)     89%      045(NE)      3.2 km/h    1020.5 hpa     21.5º    0.0 mm
   16-01-2019    09:25       6.8º(+0.9)     89%      067(NE)      4.8 km/h    1020.4 hpa     21.5º    0.0 mm
   16-01-2019    09:20       6.9º(----)     89%      045(NE)      3.2 km/h    1020.4 hpa     21.6º    0.0 mm
   16-01-2019    09:15       6.8º(----)     89%      022 (N)      3.2 km/h    1020.3 hpa     21.6º    0.0 mm
   16-01-2019    09:10       6.8º(----)     89%      022 (N)      3.2 km/h    1020.3 hpa     21.6º    0.0 mm
   16-01-2019    09:05       6.8º(----)     89%      022 (N)      4.8 km/h    1020.3 hpa     21.7º    0.0 mm
   16-01-2019    09:00        - º(----)      -%         -          -  km/h    1020.3 hpa     21.7º    0.0 mm
   16-01-2019    08:55        - º(----)      -%         -          -  km/h    1020.3 hpa     21.8º    0.0 mm
   16-01-2019    08:50        - º(----)      -%         -          -  km/h    1020.3 hpa     21.8º    0.0 mm
   16-01-2019    08:45        - º(----)      -%         -          -  km/h    1020.3 hpa     21.8º    0.0 mm
   16-01-2019    08:40        - º(----)      -%         -          -  km/h    1020.3 hpa     21.8º    0.0 mm
   16-01-2019    08:35        - º(----)      -%         -          -  km/h    1020.3 hpa     21.8º    0.0 mm
   16-01-2019    08:30        - º(----)      -%         -          -  km/h    1020.2 hpa     21.8º    0.0 mm
   16-01-2019    08:25        - º(----)      -%         -          -  km/h    1020.2 hpa     21.7º    0.0 mm
   16-01-2019    08:20        - º(----)      -%         -          -  km/h    1020.2 hpa     21.7º    0.0 mm
   16-01-2019    08:15        - º(----)      -%         -          -  km/h    1020.2 hpa     21.7º    0.0 mm
   16-01-2019    08:10        - º(----)      -%         -          -  km/h    1020.1 hpa     21.6º    0.0 mm
   16-01-2019    08:05        - º(----)      -%         -          -  km/h    1020.2 hpa     21.6º    0.0 mm
   16-01-2019    08:00        - º(----)      -%         -          -  km/h    1020.2 hpa     21.6º    0.0 mm
   16-01-2019    07:55        - º(----)      -%         -          -  km/h    1020.0 hpa     21.6º    0.0 mm
   16-01-2019    07:50        - º(----)      -%         -          -  km/h    1020.0 hpa     21.6º    0.0 mm
   16-01-2019    07:45        - º(----)      -%         -          -  km/h    1020.0 hpa     21.6º    0.0 mm
   16-01-2019    07:40        - º(----)      -%         -          -  km/h    1019.9 hpa     21.7º    0.0 mm
   16-01-2019    07:35        - º(----)      -%         -          -  km/h    1019.9 hpa     21.5º    0.0 mm
   16-01-2019    07:30        - º(----)      -%         -          -  km/h    1019.9 hpa     21.6º    0.0 mm
   16-01-2019    07:25        - º(----)      -%         -          -  km/h    1019.9 hpa     21.6º    0.0 mm
   16-01-2019    07:20        - º(----)      -%         -          -  km/h    1019.8 hpa     21.5º    0.0 mm
   16-01-2019    07:15        - º(----)      -%         -          -  km/h    1019.8 hpa     21.5º    0.0 mm
   16-01-2019    07:10        - º(----)      -%         -          -  km/h    1019.8 hpa     21.5º    0.0 mm
   16-01-2019    07:05        - º(----)      -%         -          -  km/h    1019.9 hpa     21.6º    0.0 mm
   16-01-2019    07:00        - º(----)      -%         -          -  km/h    1019.8 hpa     21.4º    0.0 mm
   16-01-2019    06:55        - º(----)      -%         -          -  km/h    1019.8 hpa     21.4º    0.0 mm
   16-01-2019    06:50        - º(----)      -%         -          -  km/h    1019.9 hpa     21.5º    0.0 mm
   16-01-2019    06:45        - º(----)      -%         -          -  km/h    1019.8 hpa     21.4º    0.0 mm
   16-01-2019    06:40        - º(----)      -%         -          -  km/h    1019.9 hpa     21.5º    0.0 mm
   16-01-2019    06:35        - º(----)      -%         -          -  km/h    1019.9 hpa     21.6º    0.0 mm
   16-01-2019    06:30       6.4º(+0.6)     89%         -          -  km/h    1019.9 hpa     21.7º    0.0 mm
   16-01-2019    06:25       6.4º(+0.6)     89%      045(NE)      3.2 km/h    1019.9 hpa     21.5º    0.0 mm
   16-01-2019    06:20       6.6º(+0.8)     89%      045(NE)      4.8 km/h    1020.0 hpa     21.3º    0.0 mm
   16-01-2019    06:15       6.6º(+0.6)     89%      045(NE)      4.8 km/h    1020.0 hpa     21.3º    0.0 mm
   16-01-2019    06:10       6.7º(+0.5)     89%      022 (N)      3.2 km/h    1020.0 hpa     21.3º    0.0 mm
   16-01-2019    06:05       6.8º(+0.3)     90%      045(NE)      3.2 km/h    1020.1 hpa     21.3º    0.0 mm
   16-01-2019    06:00       6.8º(+0.1)     90%      045(NE)      3.2 km/h    1020.0 hpa     21.3º    0.0 mm
   16-01-2019    05:55       6.8º(-0.0)     90%      045(NE)      4.8 km/h    1020.1 hpa     21.3º    0.0 mm
   16-01-2019    05:50       6.9º(+0.0)     89%      067(NE)      3.2 km/h    1020.1 hpa     21.3º    0.0 mm
   16-01-2019    05:45       7.0º(+0.1)     89%      045(NE)      4.8 km/h    1020.1 hpa     21.3º    0.0 mm
   16-01-2019    05:40       7.1º(+0.2)     90%      067(NE)      3.2 km/h    1020.2 hpa     21.3º    0.0 mm
   16-01-2019    05:35       7.1º(+0.1)     89%      022 (N)      3.2 km/h    1020.3 hpa     21.3º    0.0 mm
   16-01-2019    05:30       7.1º(+0.1)     89%      045(NE)      3.2 km/h    1020.3 hpa     21.3º    0.0 mm
   16-01-2019    05:25       7.1º(+0.1)     89%      045(NE)      4.8 km/h    1020.4 hpa     21.3º    0.0 mm
   16-01-2019    05:20       7.1º(+0.1)     89%      045(NE)      4.8 km/h    1020.3 hpa     21.3º    0.0 mm
   16-01-2019    05:15       7.1º(+0.1)     89%      045(NE)      4.8 km/h    1020.4 hpa     21.3º    0.0 mm
   16-01-2019    05:10       7.2º(+0.3)     89%      045(NE)      4.8 km/h    1020.4 hpa     21.3º    0.0 mm
   16-01-2019    05:05       7.2º(+0.3)     89%      045(NE)      3.2 km/h    1020.4 hpa     21.3º    0.0 mm
   16-01-2019    05:00       7.1º(+0.2)     89%      045(NE)      3.2 km/h    1020.5 hpa     21.3º    0.0 mm
   16-01-2019    04:55       7.1º(+0.1)     89%      045(NE)      4.8 km/h    1020.5 hpa     21.3º    0.0 mm
   16-01-2019    04:50       7.1º(+0.0)     88%      045(NE)      4.8 km/h    1020.5 hpa     21.4º    0.0 mm
   16-01-2019    04:45       7.0º(-0.1)     88%      045(NE)      4.8 km/h    1020.5 hpa     21.3º    0.0 mm
   16-01-2019    04:40       7.1º(+0.2)     88%      045(NE)      4.8 km/h    1020.6 hpa     21.3º    0.0 mm
   16-01-2019    04:35       7.1º(+0.4)     88%      045(NE)      3.2 km/h    1020.7 hpa     21.3º    0.0 mm
   16-01-2019    04:30       7.2º(+0.6)     88%      045(NE)      4.8 km/h    1020.7 hpa     21.3º    0.0 mm
   16-01-2019    04:25       7.2º(+0.5)     88%      045(NE)      4.8 km/h    1020.8 hpa     21.3º    0.0 mm
   16-01-2019    04:20       7.2º(+0.5)     88%      045(NE)      3.2 km/h    1020.9 hpa     21.3º    0.0 mm
   16-01-2019    04:15       7.2º(+0.4)     88%      067(NE)      4.8 km/h    1020.9 hpa     21.3º    0.0 mm
   16-01-2019    04:10       7.1º(+0.2)     88%      045(NE)      4.8 km/h    1020.9 hpa     21.4º    0.0 mm
   16-01-2019    04:05       7.2º(+0.2)     88%      045(NE)      4.8 km/h    1021.0 hpa     21.4º    0.0 mm
   16-01-2019    04:00       7.2º(+0.0)     88%      045(NE)      3.2 km/h    1021.0 hpa     21.3º    0.0 mm
   16-01-2019    03:55       7.2º(-0.1)     88%      045(NE)      4.8 km/h    1021.0 hpa     21.3º    0.0 mm
   16-01-2019    03:50       7.3º(-0.2)     88%      045(NE)      3.2 km/h    1021.0 hpa     21.3º    0.0 mm
   16-01-2019    03:45       7.3º(-0.4)     88%      045(NE)      3.2 km/h    1021.0 hpa     21.4º    0.0 mm
   16-01-2019    03:40       7.4º(-0.3)     88%      045(NE)      3.2 km/h    1021.0 hpa     21.4º    0.0 mm
   16-01-2019    03:35       7.4º(-0.3)     89%      045(NE)      3.2 km/h    1021.0 hpa     21.4º    0.0 mm
   16-01-2019    03:30       7.4º(-0.3)     89%      067(NE)      3.2 km/h    1021.0 hpa     21.3º    0.0 mm
   16-01-2019    03:25       7.4º(-0.3)     89%      045(NE)      1.6 km/h    1021.0 hpa     21.3º    0.0 mm
   16-01-2019    03:20       7.4º(-0.3)     89%      045(NE)      1.6 km/h    1021.1 hpa     21.3º    0.0 mm
   16-01-2019    03:15       7.3º(-0.4)     89%      045(NE)      3.2 km/h    1021.0 hpa     21.3º    0.0 mm
   16-01-2019    03:10       7.4º(-0.4)     89%      045(NE)      1.6 km/h    1021.1 hpa     21.3º    0.0 mm
   16-01-2019    03:05       7.4º(-0.5)     89%      045(NE)      3.2 km/h    1021.0 hpa     21.3º    0.0 mm
   16-01-2019    03:00       7.4º(-0.4)     88%      045(NE)      3.2 km/h    1021.0 hpa     21.3º    0.0 mm
   16-01-2019    02:55       7.6º(-0.2)     88%      067(NE)      1.6 km/h    1021.0 hpa     21.3º    0.0 mm
   16-01-2019    02:50       7.7º(-0.1)     89%      045(NE)      1.6 km/h    1021.0 hpa     21.3º    0.0 mm
   16-01-2019    02:45       7.7º(-0.1)     89%      045(NE)      1.6 km/h    1021.1 hpa     21.3º    0.0 mm
   16-01-2019    02:40       7.7º(-0.1)     89%      045(NE)      1.6 km/h    1021.1 hpa     21.3º    0.0 mm
   16-01-2019    02:35       7.7º(-0.1)     89%      045(NE)      1.6 km/h    1021.1 hpa     21.3º    0.0 mm
   16-01-2019    02:30       7.7º(-0.0)     88%      045(NE)      1.6 km/h    1021.1 hpa     21.4º    0.0 mm
   16-01-2019    02:25       7.7º(+0.0)     88%      045(NE)      1.6 km/h    1021.1 hpa     21.4º    0.0 mm
   16-01-2019    02:20       7.7º(+0.1)     88%      045(NE)      3.2 km/h    1021.0 hpa     21.3º    0.0 mm
   16-01-2019    02:15       7.7º(+0.0)     88%      045(NE)      1.6 km/h    1021.0 hpa     21.3º    0.0 mm
   16-01-2019    02:10       7.6º(-0.2)     88%      045(NE)      3.2 km/h    1021.1 hpa     21.3º    0.0 mm
   16-01-2019    02:05       7.6º(-0.3)     88%      045(NE)      3.2 km/h    1021.2 hpa     21.3º    0.0 mm
   16-01-2019    02:00       7.6º(-0.4)     88%      045(NE)      1.6 km/h    1021.1 hpa     21.3º    0.0 mm
   16-01-2019    01:55       7.6º(-0.6)     87%      045(NE)      1.6 km/h    1021.1 hpa     21.3º    0.0 mm
   16-01-2019    01:50       7.7º(-0.5)     87%      045(NE)      1.6 km/h    1021.2 hpa     21.3º    0.0 mm
   16-01-2019    01:45       7.7º(-0.6)     87%      045(NE)      1.6 km/h    1021.3 hpa     21.3º    0.0 mm
   16-01-2019    01:40       7.8º(-0.6)     86%         -         0.0 km/h    1021.3 hpa     21.3º    0.0 mm
   16-01-2019    01:35       7.9º(-0.5)     86%         -         0.0 km/h    1021.3 hpa     21.4º    0.0 mm
   16-01-2019    01:30       8.1º(-0.5)     86%         -         0.0 km/h    1021.4 hpa     21.4º    0.0 mm
   16-01-2019    01:25       8.1º(-0.5)     86%         -         0.0 km/h    1021.3 hpa     21.4º    0.0 mm
   16-01-2019    01:20       8.2º(-0.4)     86%      022 (N)      1.6 km/h    1021.4 hpa     21.4º    0.0 mm
   16-01-2019    01:15       8.2º(-0.5)     86%         -         0.0 km/h    1021.4 hpa     21.4º    0.0 mm
   16-01-2019    01:10       8.2º(-0.5)     86%         -         0.0 km/h    1021.4 hpa     21.5º    0.0 mm
   16-01-2019    01:05       8.3º(-0.3)     86%         -         0.0 km/h    1021.5 hpa     21.5º    0.0 mm
   16-01-2019    01:00       8.3º(-0.3)     86%         -         0.0 km/h    1021.5 hpa     21.5º    0.0 mm
   16-01-2019    00:55       8.3º(----)     86%         -         0.0 km/h    1021.5 hpa     21.6º    0.0 mm
   16-01-2019    00:50       8.4º(----)     85%         -         0.0 km/h    1021.6 hpa     21.6º    0.0 mm
   16-01-2019    00:45       8.6º(----)     85%         -         0.0 km/h    1021.5 hpa     21.6º    0.0 mm
   16-01-2019    00:40       8.7º(----)     85%         -         0.0 km/h    1021.7 hpa     21.7º    0.0 mm
   16-01-2019    00:35       8.8º(----)     84%         -         0.0 km/h    1021.7 hpa     21.7º    0.0 mm
   16-01-2019    00:30       8.9º(----)     84%         -         0.0 km/h    1021.6 hpa     21.8º    0.0 mm
   16-01-2019    00:25       9.0º(----)     84%         -         0.0 km/h    1021.7 hpa     21.8º    0.0 mm
   16-01-2019    00:20       9.1º(----)     84%         -         0.0 km/h    1021.7 hpa     21.8º    0.0 mm
   16-01-2019    00:15       9.2º(----)     83%         -         0.0 km/h    1021.7 hpa     21.9º    0.0 mm
   16-01-2019    00:10       9.3º(----)     83%         -         0.0 km/h    1021.8 hpa     21.9º    0.0 mm
   16-01-2019    00:05       9.5º(----)     82%         -         0.0 km/h    1021.7 hpa     21.9º    0.0 mm
   16-01-2019    00:00       9.7º(----)     82%         -         0.0 km/h    1021.8 hpa     21.9º    0.0 mm